Time;durP1;ratioP1;P1;durP2;ratioP2;P2;SDS_P1;SDS_P2;PMS_P1;PMS_P2;Temp;Humidity;BMP_temperature;BMP_pressure;BME280_temperature;BME280_humidity;BME280_pressure;Samples;Min_cycle;Max_cycle;Signal;HPM_P1;HPM_P2
2022/05/26 00:01:43;;;;;;;;;1.00;1.00;;;;;18.00;44.96;101746.16;5076418;28;45203;-58
2022/05/26 00:04:08;;;;;;;;;1.00;1.00;;;;;17.94;45.06;101738.34;5064710;27;45647;-58
2022/05/26 00:06:33;;;;;;;;;1.00;1.00;;;;;17.94;45.07;101756.09;5059729;28;45411;-58
2022/05/26 00:08:59;;;;;;;;;0.25;0.25;;;;;17.86;45.45;101751.84;5058352;28;47084;-58
2022/05/26 00:11:32;;;;;;;;;1.00;1.00;;;;;17.87;45.30;101750.91;5058397;28;45494;-58
2022/05/26 00:14:03;;;;;;;;;3.00;1.00;;;;;17.82;45.63;101752.84;5061127;28;45270;-58
2022/05/26 00:16:28;;;;;;;;;2.50;1.00;;;;;17.82;45.58;101746.63;5079118;27;45384;-58
2022/05/26 00:18:53;;;;;;;;;0.75;0.50;;;;;17.79;45.68;101744.09;5079744;27;46477;-58
2022/05/26 00:21:19;;;;;;;;;0.00;0.00;;;;;17.78;45.92;101742.34;5080084;28;45294;-58
2022/05/26 00:23:45;;;;;;;;;2.00;1.50;;;;;17.71;45.64;101739.00;5063842;28;45250;-58
2022/05/26 00:26:10;;;;;;;;;2.00;2.00;;;;;17.75;45.62;101745.94;5078688;27;45521;-58
2022/05/26 00:28:35;;;;;;;;;1.00;1.00;;;;;17.71;46.04;101737.19;5079002;28;46200;-58
2022/05/26 00:31:01;;;;;;;;;2.00;1.00;;;;;17.66;46.14;101746.19;5081896;28;45266;-60
2022/05/26 00:33:27;;;;;;;;;0.25;0.25;;;;;17.65;46.22;101744.47;5082108;28;45382;-58
2022/05/26 00:35:52;;;;;;;;;3.00;1.75;;;;;17.63;46.12;101744.50;5083327;27;45205;-58
2022/05/26 00:38:18;;;;;;;;;1.00;1.00;;;;;17.62;46.18;101745.44;5081835;28;45270;-58
2022/05/26 00:40:45;;;;;;;;;1.00;1.00;;;;;17.63;46.17;101740.97;5083223;28;45224;-58
2022/05/26 00:43:11;;;;;;;;;0.75;0.75;;;;;17.60;46.18;101749.91;5082922;27;45516;-58
2022/05/26 00:45:58;;;;;;;;;0.25;0.25;;;;;17.55;46.54;101739.41;5083006;27;45403;-58
2022/05/26 00:48:27;;;;;;;;;1.50;1.50;;;;;17.50;46.21;101745.75;5082724;27;47224;-58
2022/05/26 00:50:59;;;;;;;;;2.00;1.00;;;;;17.49;46.57;101738.69;5082989;27;45243;-58
2022/05/26 00:53:29;;;;;;;;;0.75;0.75;;;;;17.51;46.31;101745.72;5083203;27;45387;-58
2022/05/26 00:56:00;;;;;;;;;3.25;1.00;;;;;17.52;46.50;101752.78;5082757;28;45402;-58
2022/05/26 00:58:30;;;;;;;;;2.50;1.00;;;;;17.49;46.46;101750.19;5082591;27;46371;-58
2022/05/26 01:00:58;;;;;;;;;1.00;1.00;;;;;17.50;46.56;101751.09;5082424;27;45331;-58
2022/05/26 01:03:53;;;;;;;;;0.75;0.75;;;;;17.48;46.34;101755.56;5072877;28;45344;-58
2022/05/26 01:06:24;;;;;;;;;1.25;0.00;;;;;17.45;46.69;101753.00;5080322;28;46577;-58
2022/05/26 01:08:58;;;;;;;;;1.00;1.00;;;;;17.38;46.71;101755.81;5082706;27;47267;-58
2022/05/26 01:11:26;;;;;;;;;0.25;0.00;;;;;17.38;46.74;101758.47;5082392;27;45212;-58
2022/05/26 01:14:00;;;;;;;;;1.00;1.00;;;;;17.39;46.56;101761.97;5082916;27;45342;-58
2022/05/26 01:16:53;;;;;;;;;0.75;0.50;;;;;17.37;46.55;101758.47;5081048;28;45501;-58
2022/05/26 01:20:04;;;;;;;;;1.00;1.00;;;;;17.38;46.51;101762.88;5080962;28;47251;-58
2022/05/26 01:23:18;;;;;;;;;0.00;0.00;;;;;17.35;46.88;101757.69;5082446;27;45492;-58
2022/05/26 01:26:15;;;;;;;;;2.00;0.00;;;;;17.33;46.70;101762.16;5080859;28;45357;-58
2022/05/26 01:29:04;;;;;;;;;1.50;0.00;;;;;17.32;47.02;101765.72;5082301;28;45252;-58
2022/05/26 01:31:51;;;;;;;;;1.75;1.00;;;;;17.30;46.81;101757.78;5080744;28;46735;-58
2022/05/26 01:34:32;;;;;;;;;1.00;1.00;;;;;17.29;46.86;101769.31;5079923;28;45442;-58
2022/05/26 01:37:40;;;;;;;;;1.75;1.00;;;;;17.29;46.70;101773.78;5082245;27;45244;-58
2022/05/26 01:40:24;;;;;;;;;3.00;0.25;;;;;17.27;46.75;101768.50;5080784;28;45392;-58
2022/05/26 01:43:22;;;;;;;;;0.00;0.00;;;;;17.25;46.96;101766.81;5081802;27;46321;-58
2022/05/26 01:45:53;;;;;;;;;1.00;1.00;;;;;17.23;46.67;101774.78;5042200;28;45453;-58
2022/05/26 01:48:39;;;;;;;;;1.50;1.50;;;;;17.21;47.16;101784.59;5079220;28;45448;-58
2022/05/26 01:51:23;;;;;;;;;1.75;1.75;;;;;17.18;47.07;101772.28;5081949;28;45327;-58
2022/05/26 01:54:07;;;;;;;;;3.50;0.75;;;;;17.17;46.97;101773.19;5081930;28;45233;-58
2022/05/26 01:56:45;;;;;;;;;2.00;0.00;;;;;17.16;47.19;101776.75;5081634;27;45322;-58
2022/05/26 01:59:17;;;;;;;;;1.25;1.25;;;;;17.14;47.24;101765.25;5082000;27;45306;-58
2022/05/26 02:01:47;;;;;;;;;1.00;1.00;;;;;17.12;47.10;101772.41;5081745;27;45497;-58
2022/05/26 02:04:19;;;;;;;;;1.25;1.25;;;;;17.13;47.31;101778.59;5066442;27;45699;-58
2022/05/26 02:06:57;;;;;;;;;1.25;1.25;;;;;17.13;47.44;101770.63;5061268;28;45221;-58
2022/05/26 02:09:28;;;;;;;;;1.00;1.00;;;;;17.10;47.51;101768.91;5061514;28;45264;-58
2022/05/26 02:12:12;;;;;;;;;1.00;1.00;;;;;17.06;47.57;101777.88;5061289;28;45219;-58
2022/05/26 02:14:47;;;;;;;;;4.00;1.00;;;;;17.06;47.52;101772.56;5068157;28;45338;-58
2022/05/26 02:17:18;;;;;;;;;1.25;1.00;;;;;17.05;47.57;101776.13;5081279;27;45405;-58
2022/05/26 02:19:52;;;;;;;;;0.50;0.25;;;;;17.04;47.48;101774.38;5081756;27;45318;-58
2022/05/26 02:22:32;;;;;;;;;2.00;1.00;;;;;17.03;47.51;101773.53;5081421;28;45318;-58
2022/05/26 02:25:04;;;;;;;;;1.00;1.00;;;;;17.03;47.56;101772.63;5076695;28;46466;-58
2022/05/26 02:27:31;;;;;;;;;1.00;1.00;;;;;17.02;47.63;101773.56;5080455;28;45279;-58
2022/05/26 02:29:59;;;;;;;;;1.00;1.00;;;;;17.01;47.75;101777.13;5081589;27;45288;-58
2022/05/26 02:32:37;;;;;;;;;0.25;0.25;;;;;17.01;47.24;101785.09;5081372;28;45290;-58
2022/05/26 02:35:12;;;;;;;;;2.00;2.00;;;;;16.97;47.97;101768.38;5081209;27;46142;-58
2022/05/26 02:37:40;;;;;;;;;2.50;1.00;;;;;17.01;47.74;101774.47;5081347;27;45322;-58
2022/05/26 02:40:07;;;;;;;;;1.25;1.00;;;;;17.01;47.46;101772.69;5080039;28;45270;-58
2022/05/26 02:42:33;;;;;;;;;3.00;1.75;;;;;17.00;47.69;101770.06;5081026;27;45483;-58
2022/05/26 02:45:00;;;;;;;;;0.75;0.75;;;;;17.00;47.95;101770.06;5081205;27;45381;-58
2022/05/26 02:47:36;;;;;;;;;0.00;0.00;;;;;17.03;47.73;101770.88;5079480;28;45443;-58
2022/05/26 02:50:15;;;;;;;;;1.25;1.25;;;;;17.04;48.00;101775.28;5081135;27;45474;-58
2022/05/26 02:53:00;;;;;;;;;2.25;1.25;;;;;17.05;48.02;101763.72;5081075;28;45603;-58
2022/05/26 02:55:26;;;;;;;;;1.50;1.00;;;;;17.05;47.45;101779.66;5080899;27;46051;-58
2022/05/26 02:58:01;;;;;;;;;3.00;1.00;;;;;17.06;48.02;101768.13;5080728;28;45347;-58
2022/05/26 03:00:57;;;;;;;;;1.75;1.75;;;;;17.07;48.00;101771.66;5081096;27;45346;-58
2022/05/26 03:03:34;;;;;;;;;1.00;0.25;;;;;17.05;47.83;101770.81;5054115;28;45214;-58
2022/05/26 03:06:13;;;;;;;;;1.25;1.25;;;;;17.05;47.91;101771.69;5060404;28;45419;-58
2022/05/26 03:08:42;;;;;;;;;0.50;0.50;;;;;17.06;47.79;101777.88;5071207;28;45360;-58
2022/05/26 03:11:19;;;;;;;;;3.50;1.00;;;;;17.04;48.03;101772.63;5080532;27;45475;-58
2022/05/26 03:13:45;;;;;;;;;2.00;0.50;;;;;17.04;47.93;101785.00;5080942;28;45339;-58
2022/05/26 03:16:10;;;;;;;;;3.25;2.50;;;;;17.03;48.05;101778.84;5080572;27;46733;-58
2022/05/26 03:18:36;;;;;;;;;1.25;1.00;;;;;17.03;48.14;101781.50;5079408;28;46109;-58
2022/05/26 03:21:04;;;;;;;;;2.00;1.50;;;;;17.01;48.25;101775.34;5080770;27;45465;-58
2022/05/26 03:23:29;;;;;;;;;2.00;1.00;;;;;17.04;48.06;101782.34;5080819;27;45373;-58
2022/05/26 03:25:56;;;;;;;;;1.50;1.50;;;;;17.04;48.22;101777.94;5080231;27;45144;-58
2022/05/26 03:28:22;;;;;;;;;2.50;2.00;;;;;17.03;48.00;101788.56;5080397;27;45306;-58
2022/05/26 03:30:48;;;;;;;;;2.00;1.00;;;;;17.03;48.25;101783.25;5080446;27;45313;-58
2022/05/26 03:33:13;;;;;;;;;2.00;0.50;;;;;17.00;48.20;101788.66;5080370;27;45492;-58
2022/05/26 03:41:06;;;;;;;;;1.00;1.00;;;;;16.89;48.70;101792.41;5080171;28;45200;-58
2022/05/26 03:43:39;;;;;;;;;1.50;0.25;;;;;16.85;48.72;101790.72;5080089;27;45624;-58
2022/05/26 03:46:05;;;;;;;;;2.25;1.00;;;;;16.87;48.93;101798.66;5080245;27;45466;-58
2022/05/26 03:48:31;;;;;;;;;2.75;1.00;;;;;16.87;48.71;101799.53;5080280;27;45220;-58
2022/05/26 03:50:56;;;;;;;;;1.25;1.25;;;;;16.83;48.48;101795.22;5079705;28;45259;-58
2022/05/26 03:53:23;;;;;;;;;0.25;0.25;;;;;16.88;48.55;101806.59;5080226;28;45427;-58
2022/05/26 03:55:48;;;;;;;;;1.00;1.00;;;;;16.85;48.86;101805.78;5080098;28;46959;-58
2022/05/26 03:58:13;;;;;;;;;2.25;1.75;;;;;16.84;48.47;101807.59;5079719;28;45905;-58
2022/05/26 04:00:39;;;;;;;;;1.50;0.25;;;;;16.79;48.87;101803.28;5083997;27;45596;-58
2022/05/26 04:03:04;;;;;;;;;0.25;0.25;;;;;16.81;48.66;101815.59;5077740;27;45263;-58
2022/05/26 04:05:30;;;;;;;;;1.00;1.00;;;;;16.76;49.07;101820.16;5063486;28;46091;-58
2022/05/26 04:07:55;;;;;;;;;0.00;0.00;;;;;16.73;49.08;101817.56;5063229;28;45350;-58
2022/05/26 04:10:22;;;;;;;;;2.50;0.25;;;;;16.70;49.04;101820.28;5074974;28;45428;-58
2022/05/26 04:12:47;;;;;;;;;1.50;1.00;;;;;16.68;49.11;101827.44;5083382;28;45327;-58
2022/05/26 04:15:15;;;;;;;;;0.50;0.00;;;;;16.66;49.31;101834.53;5083514;27;46082;-58
2022/05/26 04:17:41;;;;;;;;;0.00;0.00;;;;;16.65;49.23;101824.81;5078784;28;45513;-58
2022/05/26 04:20:09;;;;;;;;;0.00;0.00;;;;;16.65;49.07;101824.81;5075862;28;45374;-58
2022/05/26 04:22:34;;;;;;;;;1.25;1.25;;;;;16.63;49.30;101826.63;5082956;27;45535;-58
2022/05/26 04:25:00;;;;;;;;;1.00;1.00;;;;;16.58;49.44;101814.34;5083497;27;46158;-58
2022/05/26 04:27:28;;;;;;;;;1.00;1.00;;;;;16.67;49.18;101823.88;5083005;27;45448;-58
2022/05/26 04:29:55;;;;;;;;;2.25;1.50;;;;;16.71;49.38;101832.66;5083578;27;45333;-58
2022/05/26 04:32:21;;;;;;;;;3.00;3.00;;;;;16.72;49.17;101832.59;5081796;28;45228;-58
2022/05/26 04:34:48;;;;;;;;;1.00;1.00;;;;;16.73;49.32;101836.16;5083363;27;45185;-58
2022/05/26 04:37:19;;;;;;;;;3.00;1.00;;;;;16.73;49.16;101839.66;5083059;27;45232;-58
2022/05/26 04:39:44;;;;;;;;;0.00;0.00;;;;;16.74;49.30;101835.22;5083208;27;45443;-58
2022/05/26 04:42:10;;;;;;;;;2.00;0.75;;;;;16.74;49.53;101843.19;5083050;27;45487;-58
2022/05/26 04:44:39;;;;;;;;;0.50;0.50;;;;;16.76;49.43;101844.03;5081881;28;45318;-58
2022/05/26 04:47:05;;;;;;;;;1.50;0.00;;;;;16.77;49.26;101852.88;5083078;27;45458;-58
2022/05/26 04:49:31;;;;;;;;;1.00;1.00;;;;;16.76;49.48;101862.63;5083087;27;45480;-58
2022/05/26 04:51:57;;;;;;;;;0.00;0.00;;;;;16.76;49.43;101853.78;5083003;28;45413;-58
2022/05/26 04:54:23;;;;;;;;;1.00;1.00;;;;;16.75;49.56;101858.22;5082979;27;46647;-58
2022/05/26 04:56:49;;;;;;;;;0.00;0.00;;;;;16.77;49.59;101864.38;5082575;27;45467;-58
2022/05/26 04:59:15;;;;;;;;;0.00;0.00;;;;;16.75;49.61;101858.22;5082927;28;45512;-58
2022/05/26 05:01:41;;;;;;;;;0.00;0.00;;;;;16.76;49.15;101864.41;5082968;28;45222;-58
2022/05/26 05:04:06;;;;;;;;;1.75;1.75;;;;;16.73;49.41;101860.91;5067624;27;45303;-58
2022/05/26 05:06:32;;;;;;;;;1.00;1.00;;;;;16.71;49.49;101853.88;5062606;28;45457;-58
2022/05/26 05:08:58;;;;;;;;;1.00;1.00;;;;;16.72;49.42;101867.09;5062599;28;45268;-57
2022/05/26 05:11:23;;;;;;;;;2.00;2.00;;;;;16.71;49.47;101867.16;5062247;28;45228;-58
2022/05/26 05:13:48;;;;;;;;;1.25;1.25;;;;;16.71;49.40;101867.16;5075993;28;45287;-57
2022/05/26 05:16:21;;;;;;;;;1.75;1.00;;;;;16.68;49.59;101867.22;5081345;28;45178;-57
2022/05/26 05:18:46;;;;;;;;;0.50;0.25;;;;;16.69;49.76;101868.97;5082854;27;45248;-57
2022/05/26 05:21:22;;;;;;;;;1.75;1.75;;;;;16.71;49.39;101877.78;5082515;28;45366;-57
2022/05/26 05:23:52;;;;;;;;;0.25;0.25;;;;;16.67;49.61;101876.97;5082473;27;47516;-57
2022/05/26 05:26:21;;;;;;;;;2.75;1.75;;;;;16.70;49.60;101874.25;5082157;27;45399;-57
2022/05/26 05:28:55;;;;;;;;;0.50;0.50;;;;;16.70;49.41;101878.66;5082332;27;45219;-58
2022/05/26 05:31:26;;;;;;;;;1.00;0.25;;;;;16.72;49.74;101884.81;5082578;27;45328;-57
2022/05/26 05:34:27;;;;;;;;;2.00;1.00;;;;;16.72;49.40;101882.19;5082148;27;46054;-57
2022/05/26 05:36:53;;;;;;;;;2.00;1.75;;;;;16.72;49.57;101884.81;5062625;28;45222;-57
2022/05/26 05:39:18;;;;;;;;;0.25;0.00;;;;;16.72;49.71;101885.69;5082413;27;45220;-57
2022/05/26 05:41:43;;;;;;;;;1.00;1.00;;;;;16.72;49.52;101884.81;5081971;27;45223;-57
2022/05/26 05:44:09;;;;;;;;;0.25;0.00;;;;;16.75;49.67;101890.06;5082075;28;46078;-57
2022/05/26 05:46:34;;;;;;;;;1.00;1.00;;;;;16.77;49.61;101895.34;5081978;27;45205;-57
2022/05/26 05:49:02;;;;;;;;;1.00;0.25;;;;;16.77;49.71;101890.91;5082274;28;45288;-57
2022/05/26 05:51:28;;;;;;;;;1.50;1.00;;;;;16.80;49.57;101889.97;5081884;27;45269;-57
2022/05/26 05:53:55;;;;;;;;;2.25;0.50;;;;;16.84;49.45;101886.31;5081952;27;46182;-57
2022/05/26 05:56:20;;;;;;;;;1.00;1.00;;;;;16.85;49.30;101890.72;5081797;27;45365;-57
2022/05/26 05:58:45;;;;;;;;;0.00;0.00;;;;;16.87;49.30;101889.78;5082194;27;45273;-57
2022/05/26 06:01:11;;;;;;;;;1.00;1.00;;;;;16.88;49.78;101894.19;5080434;28;45533;-57
2022/05/26 06:03:39;;;;;;;;;0.00;0.00;;;;;16.90;49.24;101903.00;5071490;27;46021;-57
2022/05/26 06:06:07;;;;;;;;;0.50;0.50;;;;;16.93;49.43;101904.75;5060325;28;45392;-57
2022/05/26 06:08:33;;;;;;;;;1.25;0.50;;;;;16.93;49.52;101902.09;5061631;28;45427;-58
2022/05/26 06:10:58;;;;;;;;;0.50;0.50;;;;;16.94;49.65;101908.28;5061139;28;45256;-57
2022/05/26 06:13:24;;;;;;;;;2.00;1.00;;;;;16.96;49.58;101911.78;5061343;28;46040;-57
2022/05/26 06:15:49;;;;;;;;;1.00;1.00;;;;;16.93;49.79;101906.53;5061128;28;45540;-58
2022/05/26 06:18:16;;;;;;;;;3.50;3.00;;;;;16.96;49.33;101914.44;5061799;28;45354;-58
2022/05/26 06:20:42;;;;;;;;;2.00;1.00;;;;;16.95;49.75;101918.00;5060623;28;45459;-57
2022/05/26 06:23:07;;;;;;;;;1.00;1.00;;;;;16.96;49.64;101920.59;5061197;28;45239;-57
2022/05/26 06:25:33;;;;;;;;;0.75;0.75;;;;;16.97;49.31;101916.19;5060858;28;45199;-57
2022/05/26 06:30:42;;;;;;;;;0.00;0.00;;;;;17.00;49.68;101924.94;5068238;28;45252;-57
2022/05/26 06:38:43;;;;;;;;;1.00;0.50;;;;;17.07;49.12;101941.63;5081343;28;45304;-57
2022/05/26 06:43:54;;;;;;;;;0.00;0.00;;;;;17.09;49.21;101947.75;5081464;28;45689;-57
2022/05/26 06:46:20;;;;;;;;;0.00;0.00;;;;;17.14;49.54;101950.31;5080963;27;45354;-58
2022/05/26 06:48:46;;;;;;;;;0.00;0.00;;;;;17.12;49.52;101953.00;5081450;27;45335;-57
2022/05/26 06:51:12;;;;;;;;;0.00;0.00;;;;;17.14;49.42;101948.53;5081198;27;45157;-57
2022/05/26 06:53:38;;;;;;;;;0.00;0.00;;;;;17.15;49.55;101954.72;5076470;28;46077;-57
2022/05/26 06:56:05;;;;;;;;;0.00;0.00;;;;;17.13;49.40;101956.53;5075555;28;45231;-57
2022/05/26 06:58:31;;;;;;;;;0.00;0.00;;;;;17.11;49.29;101951.25;5081312;27;45594;-58
2022/05/26 07:00:57;;;;;;;;;0.50;0.00;;;;;17.18;49.37;101960.84;5080640;27;45451;-57
2022/05/26 07:03:22;;;;;;;;;0.00;0.00;;;;;17.18;49.47;101959.94;5072068;27;46252;-57
2022/05/26 07:05:48;;;;;;;;;1.00;1.00;;;;;17.19;49.66;101967.00;5060529;28;45314;-57
2022/05/26 07:08:13;;;;;;;;;0.50;0.00;;;;;17.21;49.54;101967.88;5060696;28;45489;-57
2022/05/26 07:10:39;;;;;;;;;0.00;0.00;;;;;17.21;49.64;101968.72;5060446;28;45401;-58
2022/05/26 07:13:05;;;;;;;;;1.50;1.50;;;;;17.20;49.55;101974.94;5060316;28;45346;-58
2022/05/26 07:15:33;;;;;;;;;1.00;0.00;;;;;17.23;49.37;101981.97;5073850;28;45685;-58
2022/05/26 07:17:58;;;;;;;;;0.00;0.00;;;;;17.23;49.59;101979.31;5080786;27;45214;-57
2022/05/26 07:20:23;;;;;;;;;0.00;0.00;;;;;17.23;49.14;101976.66;5080494;27;45220;-58
2022/05/26 07:22:49;;;;;;;;;1.00;0.00;;;;;17.28;49.61;101984.53;5080796;28;46417;-58
2022/05/26 07:25:15;;;;;;;;;1.00;1.00;;;;;17.34;49.40;101984.41;5079088;28;45292;-58
2022/05/26 07:27:42;;;;;;;;;0.00;0.00;;;;;17.36;49.32;101986.09;5080710;27;45418;-57
2022/05/26 07:30:10;;;;;;;;;2.00;0.25;;;;;17.49;49.52;101992.00;5080445;27;45462;-57
2022/05/26 07:32:36;;;;;;;;;2.25;1.75;;;;;17.55;49.12;101991.84;5078481;27;45421;-57
2022/05/26 07:35:01;;;;;;;;;0.25;0.25;;;;;17.62;49.66;101992.59;5080501;27;45507;-57
2022/05/26 07:42:55;;;;;;;;;0.00;0.00;;;;;17.77;49.25;101999.31;5080115;28;45332;-57
2022/05/26 07:45:22;;;;;;;;;0.50;0.00;;;;;17.83;49.25;102003.63;5080279;27;45177;-57
2022/05/26 07:47:47;;;;;;;;;1.50;0.00;;;;;17.82;49.32;102002.75;5080273;28;45279;-57
2022/05/26 07:50:20;;;;;;;;;1.25;0.00;;;;;17.85;49.28;102002.66;5080312;27;45602;-57
2022/05/26 07:52:50;;;;;;;;;2.00;0.00;;;;;17.88;49.39;102012.34;5080179;28;45962;-58
2022/05/26 07:55:18;;;;;;;;;0.00;0.00;;;;;17.90;48.90;102015.84;5080315;27;45279;-58
2022/05/26 07:57:43;;;;;;;;;1.00;0.00;;;;;17.91;49.16;102012.28;5079268;27;45283;-58
2022/05/26 08:00:09;;;;;;;;;0.00;0.00;;;;;17.91;49.12;102016.72;5080201;27;45380;-58
2022/05/26 08:02:35;;;;;;;;;1.75;0.00;;;;;17.94;49.26;102014.03;5077373;27;45322;-58
2022/05/26 08:05:00;;;;;;;;;1.00;1.00;;;;;17.97;49.04;102016.59;5059985;28;45264;-58
2022/05/26 08:07:25;;;;;;;;;1.50;0.50;;;;;17.99;48.97;102015.66;5059985;28;45142;-58
2022/05/26 08:09:51;;;;;;;;;1.00;0.00;;;;;18.03;49.11;102019.09;5059849;28;45511;-58
2022/05/26 08:12:16;;;;;;;;;0.00;0.00;;;;;18.05;48.60;102024.38;5073744;28;47262;-58
2022/05/26 08:14:43;;;;;;;;;0.00;0.00;;;;;18.09;49.08;102037.56;5080203;27;45259;-58
2022/05/26 08:17:13;;;;;;;;;0.00;0.00;;;;;18.09;49.06;102042.91;5080102;27;45234;-58
2022/05/26 08:19:39;;;;;;;;;0.00;0.00;;;;;18.08;49.08;102037.63;5079069;27;45566;-58
2022/05/26 08:22:05;;;;;;;;;0.00;0.00;;;;;18.07;49.11;102039.38;5079748;27;45436;-58
2022/05/26 08:24:30;;;;;;;;;0.00;0.00;;;;;18.06;49.37;102037.63;5080094;27;45361;-58
2022/05/26 08:26:56;;;;;;;;;0.50;0.00;;;;;18.04;49.48;102042.13;5079682;27;45307;-58
2022/05/26 08:29:22;;;;;;;;;1.00;0.00;;;;;18.04;49.34;102039.47;5079885;27;45444;-58
2022/05/26 08:31:47;;;;;;;;;0.00;0.00;;;;;18.06;49.53;102042.09;5077516;28;46333;-58
2022/05/26 08:34:13;;;;;;;;;2.50;0.00;;;;;18.10;49.52;102035.78;5079997;27;45597;-58
2022/05/26 08:36:39;;;;;;;;;1.00;1.00;;;;;18.16;49.28;102047.16;5079927;27;45272;-58
2022/05/26 08:39:05;;;;;;;;;0.00;0.00;;;;;18.22;49.42;102039.94;5079704;27;45455;-58
2022/05/26 08:41:42;;;;;;;;;0.00;0.00;;;;;18.26;49.49;102049.56;5079260;28;46117;-58
2022/05/26 08:44:12;;;;;;;;;0.00;0.00;;;;;18.25;49.31;102058.47;5080884;27;45286;-58
2022/05/26 08:46:48;;;;;;;;;0.00;0.00;;;;;18.27;49.58;102065.50;5082983;27;45458;-58
2022/05/26 08:49:23;;;;;;;;;0.25;0.25;;;;;18.26;49.24;102063.72;5083103;28;45543;-58
2022/05/26 08:52:10;;;;;;;;;0.00;0.00;;;;;18.26;49.65;102070.84;5069475;28;45477;-58
2022/05/26 08:55:01;;;;;;;;;1.00;1.00;;;;;18.22;49.63;102071.84;5082788;28;45220;-58
2022/05/26 08:57:39;;;;;;;;;0.25;0.25;;;;;18.19;49.97;102079.00;5077769;28;45429;-58
2022/05/26 09:00:07;;;;;;;;;1.00;1.00;;;;;18.22;50.09;102082.50;5078223;28;45267;-58
2022/05/26 09:02:37;;;;;;;;;2.00;1.00;;;;;18.21;49.91;102067.44;5074453;28;46272;-58
2022/05/26 09:05:14;;;;;;;;;4.25;3.25;;;;;18.25;49.73;102077.97;5070312;28;45516;-58
2022/05/26 09:13:41;;;;;;;;;2.50;2.50;;;;;18.39;49.96;102084.72;5082597;28;45822;-58
2022/05/26 09:16:08;;;;;;;;;3.00;3.00;;;;;18.46;49.80;102083.66;5082370;27;45462;-58
2022/05/26 09:18:35;;;;;;;;;3.00;3.00;;;;;18.51;49.79;102077.31;5082768;27;45373;-58
2022/05/26 09:21:25;;;;;;;;;3.00;3.00;;;;;18.63;49.69;102086.75;5082489;27;46193;-58
2022/05/26 09:23:53;;;;;;;;;4.50;4.50;;;;;18.73;49.60;102091.81;5082248;27;45261;-58
2022/05/26 09:26:23;;;;;;;;;5.00;3.75;;;;;18.80;49.57;102088.06;5081821;27;45309;-58
2022/05/26 09:28:54;;;;;;;;;5.00;5.00;;;;;18.87;49.64;102088.75;5077560;28;45281;-58
2022/05/26 09:31:29;;;;;;;;;3.00;3.00;;;;;18.95;49.76;102084.13;5073788;28;45398;-58
2022/05/26 09:34:23;;;;;;;;;3.25;3.25;;;;;19.06;49.60;102089.19;5082240;27;46166;-58
2022/05/26 09:37:00;;;;;;;;;2.00;2.00;;;;;19.12;49.51;102089.88;5077395;28;45329;-58
2022/05/26 09:39:37;;;;;;;;;3.50;3.25;;;;;19.19;49.90;102092.34;5072376;28;45337;-58
2022/05/26 09:42:06;;;;;;;;;3.75;3.00;;;;;19.29;49.65;102091.16;5082031;27;45514;-58
2022/05/26 09:44:44;;;;;;;;;2.25;2.25;;;;;19.36;49.31;102097.16;5081875;27;46273;-58
2022/05/26 09:47:54;;;;;;;;;4.00;3.00;;;;;19.43;49.51;102106.75;5077184;28;45377;-58
2022/05/26 09:50:38;;;;;;;;;2.25;1.50;;;;;19.52;49.19;102102.94;5070231;28;45290;-59
2022/05/26 09:53:10;;;;;;;;;4.50;1.75;;;;;19.64;49.43;102099.88;5081806;28;45243;-58
2022/05/26 09:55:45;;;;;;;;;2.75;1.00;;;;;19.77;48.99;102108.38;5080242;27;46399;-59
2022/05/26 09:58:14;;;;;;;;;3.75;2.00;;;;;19.85;49.15;102111.72;5081809;27;45399;-58
2022/05/26 10:00:47;;;;;;;;;1.00;1.00;;;;;19.88;49.06;102108.94;5081781;27;45227;-59
2022/05/26 10:03:33;;;;;;;;;1.25;1.25;;;;;19.91;49.04;102107.97;5074185;27;45149;-59
2022/05/26 10:06:23;;;;;;;;;3.00;2.75;;;;;19.96;49.03;102103.34;5061262;28;46195;-59
2022/05/26 10:09:03;;;;;;;;;2.00;1.00;;;;;20.01;48.98;102105.88;5061365;28;45430;-56
2022/05/26 10:11:56;;;;;;;;;2.00;2.00;;;;;20.01;48.42;102117.41;5061496;28;45232;-56
2022/05/26 10:14:50;;;;;;;;;3.50;1.75;;;;;19.99;48.75;102121.94;5061302;28;45520;-56
2022/05/26 10:17:43;;;;;;;;;2.00;2.00;;;;;19.98;48.24;102125.53;5061064;28;46304;-57
2022/05/26 10:20:26;;;;;;;;;1.75;1.50;;;;;19.99;48.28;102121.94;5061138;28;45315;-59
2022/05/26 10:23:13;;;;;;;;;2.00;2.00;;;;;20.00;48.47;102115.69;5061415;28;45427;-59
2022/05/26 10:25:57;;;;;;;;;4.00;3.00;;;;;20.02;47.66;102113.84;5060733;28;45542;-59
2022/05/26 10:29:04;;;;;;;;;2.25;2.00;;;;;20.09;48.07;102115.38;5061005;28;46291;-59
2022/05/26 10:31:45;;;;;;;;;3.25;2.75;;;;;20.17;47.80;102109.78;5059520;28;45352;-59
2022/05/26 10:34:32;;;;;;;;;2.00;2.00;;;;;20.36;47.66;102104.72;5061395;28;45499;-59
2022/05/26 10:37:17;;;;;;;;;0.00;0.00;;;;;20.51;47.54;102116.66;5060793;28;46172;-59
2022/05/26 10:40:13;;;;;;;;;1.25;1.00;;;;;20.67;48.04;102114.34;5060859;28;45457;-59
2022/05/26 10:43:18;;;;;;;;;1.00;1.00;;;;;20.77;47.36;102106.91;5060770;28;45287;-58
2022/05/26 10:45:51;;;;;;;;;1.00;1.00;;;;;20.82;47.61;102106.72;5072146;28;45346;-56
2022/05/26 10:48:36;;;;;;;;;1.25;0.50;;;;;20.84;47.10;102097.78;5080692;27;45338;-60
2022/05/26 10:51:24;;;;;;;;;1.00;1.00;;;;;20.92;46.89;102108.16;5080808;28;45434;-57
2022/05/26 10:54:15;;;;;;;;;0.00;0.00;;;;;21.08;46.92;102105.78;5080709;28;45308;-57
2022/05/26 10:57:40;;;;;;;;;1.25;0.25;;;;;21.45;46.94;102104.41;5080904;27;45561;-59
2022/05/26 11:00:28;;;;;;;;;1.00;1.00;;;;;21.84;47.43;102101.13;5027694;28;45225;-60
2022/05/26 11:03:09;;;;;;;;;0.00;0.00;;;;;22.24;47.23;102102.16;5073939;28;47202;-59
2022/05/26 11:05:42;;;;;;;;;1.50;0.00;;;;;22.51;46.88;102103.78;5060689;28;45360;-57
2022/05/26 11:08:34;;;;;;;;;0.00;0.00;;;;;22.64;46.38;102107.66;5067633;28;45262;-56
2022/05/26 11:11:12;;;;;;;;;0.50;0.50;;;;;22.75;46.50;102101.81;5080430;28;45252;-57
2022/05/26 11:13:58;;;;;;;;;0.00;0.00;;;;;22.84;45.89;102100.53;5080626;27;46152;-56
2022/05/26 11:19:28;;;;;;;;;3.25;3.25;;;;;22.81;45.58;102093.50;5080655;28;45260;-58
2022/05/26 11:21:54;;;;;;;;;1.00;1.00;;;;;22.81;45.71;102098.88;5080531;27;45436;-58
2022/05/26 11:24:22;;;;;;;;;1.50;1.00;;;;;22.75;45.10;102091.09;5075688;28;45713;-58
2022/05/26 11:26:50;;;;;;;;;1.50;1.50;;;;;22.80;45.16;102096.25;5073602;28;45346;-58
2022/05/26 11:29:39;;;;;;;;;1.00;1.00;;;;;22.86;45.12;102090.63;5076112;28;45474;-58
2022/05/26 11:38:06;;;;;;;;;1.75;1.00;;;;;23.14;44.78;102089.38;5079469;28;45353;-58
2022/05/26 11:40:46;;;;;;;;;1.00;1.00;;;;;23.22;44.56;102092.63;5080347;27;45444;-59
2022/05/26 11:43:23;;;;;;;;;1.50;1.25;;;;;23.25;44.47;102081.72;5080288;27;45528;-59
2022/05/26 11:45:51;;;;;;;;;1.50;1.50;;;;;23.31;44.43;102083.28;5080160;27;47159;-58
2022/05/26 11:48:31;;;;;;;;;1.00;1.00;;;;;23.46;44.36;102087.00;5080108;27;45480;-59
2022/05/26 11:51:00;;;;;;;;;1.00;1.00;;;;;23.61;44.36;102082.72;5075738;28;45430;-59
2022/05/26 11:53:32;;;;;;;;;0.50;0.50;;;;;23.79;44.14;102083.69;5065700;28;45349;-59
2022/05/26 11:56:03;;;;;;;;;1.00;1.00;;;;;23.91;43.80;102095.59;5079647;27;46462;-58
2022/05/26 11:58:37;;;;;;;;;1.00;1.00;;;;;23.89;43.77;102090.31;5080015;27;45409;-58
2022/05/26 12:01:14;;;;;;;;;1.00;1.00;;;;;23.91;43.72;102084.88;5079962;27;45307;-58
2022/05/26 12:03:54;;;;;;;;;2.25;2.25;;;;;23.91;43.64;102088.47;5068450;27;45356;-58
2022/05/26 12:06:36;;;;;;;;;0.50;0.50;;;;;23.85;43.53;102080.69;5066237;28;46576;-58
2022/05/26 12:09:11;;;;;;;;;0.00;0.00;;;;;23.76;43.44;102075.75;5079795;27;45318;-58
2022/05/26 12:12:06;;;;;;;;;2.75;1.00;;;;;23.67;43.06;102086.00;5079932;27;45248;-58
2022/05/26 12:14:37;;;;;;;;;0.00;0.00;;;;;23.60;43.36;102084.56;5080071;28;45473;-58
2022/05/26 12:17:30;;;;;;;;;0.50;0.50;;;;;23.58;43.03;102089.13;5079665;28;45510;-58
2022/05/26 12:20:11;;;;;;;;;1.00;1.00;;;;;23.61;42.95;102085.41;5082169;28;45218;-58
2022/05/26 12:22:51;;;;;;;;;0.75;0.75;;;;;23.65;42.68;102079.84;5083588;28;45449;-58
2022/05/26 12:25:20;;;;;;;;;0.50;0.50;;;;;23.72;42.73;102071.50;5083177;27;45339;-58
2022/05/26 12:27:54;;;;;;;;;0.00;0.00;;;;;23.80;42.50;102072.84;5083011;28;45411;-58